Time;durP1;ratioP1;P1;durP2;ratioP2;P2;SDS_P1;SDS_P2;PMS_P1;PMS_P2;Temp;Humidity;BMP_temperature;BMP_pressure;BME280_temperature;BME280_humidity;BME280_pressure;Samples;Min_cycle;Max_cycle;Signal;HPM_P1;HPM_P2
2023/03/20 00:01:29;;;;;;;1999.90;999.90;;;9.50;99.90;;;;;;6662788;88;20157;-81
2023/03/20 00:11:33;;;;;;;1999.90;999.90;;;9.50;99.90;;;;;;6662933;88;20175;-81
2023/03/20 00:21:33;;;;;;;1999.90;999.90;;;9.40;99.90;;;;;;6662657;88;20853;-81
2023/03/20 00:31:38;;;;;;;1999.90;999.90;;;9.60;99.90;;;;;;6662312;88;20182;-81
2023/03/20 00:41:43;;;;;;;1999.90;999.90;;;9.50;99.90;;;;;;6662207;88;20249;-81
2023/03/20 00:51:44;;;;;;;1999.90;999.90;;;9.40;99.90;;;;;;6713037;88;20252;-82
2023/03/20 01:01:45;;;;;;;1999.90;999.90;;;9.40;99.90;;;;;;6713044;88;20217;-81
2023/03/20 01:11:46;;;;;;;1999.90;999.90;;;9.50;99.90;;;;;;6712948;88;20182;-81
2023/03/20 01:21:46;;;;;;;1999.90;999.90;;;9.40;99.90;;;;;;6711802;88;20190;-81
2023/03/20 01:31:48;;;;;;;1999.90;999.90;;;9.30;99.90;;;;;;6716139;88;20187;-82
2023/03/20 01:41:50;;;;;;;1999.90;999.90;;;9.40;99.90;;;;;;6715262;88;20186;-80
2023/03/20 01:51:51;;;;;;;1999.90;999.90;;;9.30;99.90;;;;;;6725254;88;20161;-84
2023/03/20 02:01:52;;;;;;;1999.90;999.90;;;9.30;99.90;;;;;;6732468;88;20186;-83
2023/03/20 02:11:53;;;;;;;1999.90;999.90;;;9.40;99.90;;;;;;6732089;88;20166;-80
2023/03/20 02:22:31;;;;;;;1999.90;999.90;;;9.40;99.90;;;;;;6678312;88;20161;-82
2023/03/20 02:32:35;;;;;;;1999.90;999.90;;;9.30;99.90;;;;;;6664040;88;20304;-83
2023/03/20 02:43:13;;;;;;;1999.90;999.90;;;9.30;99.90;;;;;;6663956;88;20213;-82
2023/03/20 02:53:26;;;;;;;1999.90;999.90;;;9.20;99.90;;;;;;6611647;89;20198;-82
2023/03/20 03:03:34;;;;;;;1999.90;999.90;;;9.10;99.90;;;;;;6611439;89;20983;-82
2023/03/20 03:13:44;;;;;;;1999.90;999.90;;;9.10;99.90;;;;;;6611303;89;20175;-83
2023/03/20 03:23:46;;;;;;;1999.90;999.90;;;9.00;99.90;;;;;;6630778;88;20180;-82
2023/03/20 03:33:54;;;;;;;1999.90;999.90;;;8.90;99.90;;;;;;6663635;88;20329;-81
2023/03/20 03:44:06;;;;;;;1999.90;999.90;;;8.90;99.90;;;;;;6663342;77;20220;-77
2023/03/20 03:54:12;;;;;;;1999.90;999.90;;;8.90;99.90;;;;;;6671954;88;21043;-76
2023/03/20 04:04:15;;;;;;;1999.90;999.90;;;8.90;99.90;;;;;;6676182;88;20334;-78
2023/03/20 04:14:16;;;;;;;1999.90;999.90;;;8.90;99.90;;;;;;6667663;88;20278;-77
2023/03/20 04:24:16;;;;;;;1999.90;999.90;;;9.10;99.90;;;;;;6670643;88;20309;-76
2023/03/20 04:34:18;;;;;;;1999.90;999.90;;;8.70;99.90;;;;;;6672450;88;20195;-76
2023/03/20 04:44:19;;;;;;;1999.90;999.90;;;8.50;99.90;;;;;;6670642;88;20209;-78
2023/03/20 04:54:19;;;;;;;1999.90;999.90;;;8.60;99.90;;;;;;6672874;89;20195;-76
2023/03/20 05:04:20;;;;;;;1999.90;999.90;;;8.60;99.90;;;;;;6674224;88;20954;-78
2023/03/20 05:14:20;;;;;;;1999.90;999.90;;;8.70;99.90;;;;;;6673525;88;20279;-77
2023/03/20 05:24:21;;;;;;;1999.90;999.90;;;8.60;99.90;;;;;;6677242;88;20671;-77
2023/03/20 05:34:22;;;;;;;1999.90;999.90;;;8.60;99.90;;;;;;6669827;88;20217;-77
2023/03/20 05:44:22;;;;;;;1999.90;999.90;;;8.60;99.90;;;;;;6669007;88;20184;-76
2023/03/20 05:54:23;;;;;;;1999.90;999.90;;;8.40;99.90;;;;;;6665403;88;20193;-79
2023/03/20 06:04:24;;;;;;;1999.90;999.90;;;8.20;99.90;;;;;;6672855;88;20225;-76
2023/03/20 06:14:25;;;;;;;1999.90;999.90;;;8.30;99.90;;;;;;6671626;88;20226;-78
2023/03/20 06:24:25;;;;;;;1999.90;999.90;;;8.30;99.90;;;;;;6676526;88;20184;-77
2023/03/20 06:34:26;;;;;;;1999.90;999.90;;;8.30;99.90;;;;;;6674863;88;20602;-78
2023/03/20 06:44:27;;;;;;;1999.90;999.90;;;8.40;99.90;;;;;;6675458;88;20307;-77
2023/03/20 06:54:27;;;;;;;1999.90;999.90;;;8.50;99.90;;;;;;6668627;88;20567;-77
2023/03/20 07:04:28;;;;;;;1999.90;999.90;;;8.60;99.90;;;;;;6672194;88;20202;-77
2023/03/20 07:14:28;;;;;;;1999.90;999.90;;;8.90;99.90;;;;;;6672545;88;20805;-75
2023/03/20 07:24:30;;;;;;;1999.90;999.90;;;8.80;99.90;;;;;;6670965;88;20198;-77
2023/03/20 07:34:31;;;;;;;1999.90;999.90;;;9.10;99.90;;;;;;6678338;88;20575;-80
2023/03/20 07:44:31;;;;;;;1999.90;999.90;;;9.20;99.90;;;;;;6669879;88;20336;-78
2023/03/20 07:54:32;;;;;;;1999.90;999.90;;;9.80;99.90;;;;;;6670896;89;20208;-77
2023/03/20 08:04:32;;;;;;;1999.90;999.90;;;10.10;99.90;;;;;;6676023;88;20696;-77
2023/03/20 08:14:33;;;;;;;1999.90;999.90;;;10.20;99.90;;;;;;6680832;88;20646;-76
2023/03/20 08:24:34;;;;;;;1999.90;999.90;;;10.10;99.90;;;;;;6670051;88;20637;-79
2023/03/20 08:34:34;;;;;;;1999.90;999.90;;;9.80;99.90;;;;;;6670148;88;20223;-78
2023/03/20 08:44:35;;;;;;;1999.90;999.90;;;9.90;99.90;;;;;;6671998;88;20241;-79
2023/03/20 08:54:35;;;;;;;1999.90;999.90;;;9.90;99.90;;;;;;6670703;88;20179;-76
2023/03/20 09:04:36;;;;;;;1999.90;999.90;;;10.10;99.90;;;;;;6682309;88;20228;-76
2023/03/20 09:14:37;;;;;;;1999.90;999.90;;;10.00;99.90;;;;;;6670612;88;20325;-76
2023/03/20 09:24:37;;;;;;;1999.90;999.90;;;10.30;99.90;;;;;;6670224;88;20605;-76
2023/03/20 09:34:38;;;;;;;1999.90;999.90;;;10.60;99.90;;;;;;6670058;87;20192;-77
2023/03/20 09:45:05;;;;;;;1999.90;999.90;;;11.00;99.90;;;;;;6686567;88;20241;-77
2023/03/20 09:55:13;;;;;;;1999.90;999.90;;;11.10;99.90;;;;;;6693017;88;20213;-78
2023/03/20 10:05:20;;;;;;;1999.90;999.90;;;10.90;99.90;;;;;;6685022;88;20196;-79
2023/03/20 10:15:45;;;;;;;1999.90;999.90;;;11.10;99.90;;;;;;6678241;88;20301;-78
2023/03/20 10:25:51;;;;;;;1999.90;999.90;;;11.00;99.90;;;;;;6669589;89;20609;-78
2023/03/20 10:36:04;;;;;;;1999.90;999.90;;;11.00;99.90;;;;;;6676956;88;20616;-78
2023/03/20 10:46:13;;;;;;;1999.90;999.90;;;10.90;99.90;;;;;;6677503;88;20242;-78
2023/03/20 10:56:38;;;;;;;1999.90;999.90;;;11.10;99.90;;;;;;6677285;88;20195;-78
2023/03/20 11:07:06;;;;;;;1999.90;999.90;;;11.50;99.90;;;;;;6686189;88;20239;-78
2023/03/20 11:17:06;;;;;;;1999.90;999.90;;;11.20;99.90;;;;;;6690884;88;20192;-78
2023/03/20 11:27:14;;;;;;;1999.90;999.90;;;11.40;99.90;;;;;;6683315;88;20212;-77
2023/03/20 11:37:24;;;;;;;1999.90;999.90;;;11.00;99.90;;;;;;6702782;88;20220;-77
2023/03/20 11:47:27;;;;;;;1999.90;999.90;;;11.00;99.90;;;;;;6680523;88;20242;-78
2023/03/20 11:57:36;;;;;;;1999.90;999.90;;;11.10;99.90;;;;;;6670373;88;20312;-78
2023/03/20 12:07:38;;;;;;;1999.90;999.90;;;10.90;99.90;;;;;;6675695;88;20191;-78
2023/03/20 12:17:42;;;;;;;1999.90;999.90;;;10.70;99.90;;;;;;6693255;88;20199;-77
2023/03/20 12:27:48;;;;;;;1999.90;999.90;;;11.00;99.90;;;;;;6673239;89;20215;-78
2023/03/20 12:37:50;;;;;;;;;;;11.40;99.90;;;;;;6673590;88;20201;-77
2023/03/20 12:48:08;;;;;;;1999.90;999.90;;;11.10;99.90;;;;;;6673197;88;20044;-78
2023/03/20 12:58:44;;;;;;;1999.90;999.90;;;11.30;99.90;;;;;;6670789;89;20882;-77
2023/03/20 13:09:05;;;;;;;1999.90;999.90;;;11.40;99.90;;;;;;6676384;88;20189;-77
2023/03/20 13:19:10;;;;;;;1999.90;999.90;;;10.80;99.90;;;;;;6669513;88;20185;-78
2023/03/20 13:29:37;;;;;;;1999.90;999.90;;;11.20;99.90;;;;;;6677717;88;20195;-78
2023/03/20 13:39:44;;;;;;;1999.90;999.90;;;11.40;99.90;;;;;;6671554;88;20196;-77
2023/03/20 13:50:32;;;;;;;1999.90;999.90;;;11.40;99.90;;;;;;6674891;88;20194;-77
2023/03/20 14:00:56;;;;;;;1999.90;999.90;;;11.40;99.90;;;;;;6678823;88;20245;-78
2023/03/20 14:11:14;;;;;;;1999.90;999.90;;;11.50;99.90;;;;;;6675898;88;20724;-77
2023/03/20 14:21:22;;;;;;;1999.90;999.90;;;12.30;99.90;;;;;;6682674;88;20369;-77
2023/03/20 14:31:33;;;;;;;1999.90;999.90;;;12.40;99.90;;;;;;6673802;88;20355;-77
2023/03/20 14:41:52;;;;;;;1999.90;999.90;;;12.20;99.90;;;;;;6671815;88;20332;-77
2023/03/20 14:51:59;;;;;;;1999.90;999.90;;;12.30;99.90;;;;;;6670747;89;20271;-78
2023/03/20 15:02:01;;;;;;;1999.90;999.90;;;12.40;99.90;;;;;;6675689;88;20192;-77
2023/03/20 15:12:03;;;;;;;1999.90;999.90;;;12.50;99.90;;;;;;6674078;88;20242;-77
2023/03/20 15:22:15;;;;;;;1999.90;999.90;;;12.40;99.90;;;;;;6685608;88;20212;-77
2023/03/20 15:32:16;;;;;;;1999.90;999.90;;;12.30;99.90;;;;;;6675762;88;20740;-77
2023/03/20 15:42:20;;;;;;;1999.90;999.90;;;12.00;99.90;;;;;;6671522;88;20199;-75
2023/03/20 15:52:33;;;;;;;1999.90;999.90;;;12.30;99.90;;;;;;6672269;88;20208;-77
2023/03/20 16:02:35;;;;;;;1999.90;999.90;;;12.70;99.90;;;;;;6675236;88;20644;-76
2023/03/20 16:12:36;;;;;;;1999.90;999.90;;;13.00;99.90;;;;;;6675565;88;20268;-77
2023/03/20 16:22:37;;;;;;;1999.90;999.90;;;12.90;99.90;;;;;;6670952;88;20208;-76
2023/03/20 16:32:40;;;;;;;1999.90;999.90;;;12.90;99.90;;;;;;6671692;88;20697;-77
2023/03/20 16:42:42;;;;;;;1999.90;999.90;;;12.50;99.90;;;;;;6673211;88;20255;-78
2023/03/20 16:52:56;;;;;;;1999.90;999.90;;;12.10;99.90;;;;;;6674214;88;20228;-77
2023/03/20 17:03:11;;;;;;;1999.90;999.90;;;11.90;99.90;;;;;;6672993;88;20709;-78
2023/03/20 17:13:11;;;;;;;1999.90;999.90;;;11.90;99.90;;;;;;6672967;89;20202;-78
2023/03/20 17:23:19;;;;;;;1999.90;999.90;;;11.90;99.90;;;;;;6671759;88;20183;-79
2023/03/20 17:33:20;;;;;;;1999.90;999.90;;;11.80;99.90;;;;;;6670269;88;20221;-78
2023/03/20 17:43:21;;;;;;;1999.90;999.90;;;11.60;99.90;;;;;;6668227;88;20279;-78
2023/03/20 17:53:24;;;;;;;1999.90;999.90;;;11.60;99.90;;;;;;6675186;88;20192;-76
2023/03/20 18:03:24;;;;;;;1999.90;999.90;;;11.50;99.90;;;;;;6671037;88;20235;-78
2023/03/20 18:13:25;;;;;;;1999.90;999.90;;;11.40;99.90;;;;;;6673550;88;20203;-78
2023/03/20 18:23:26;;;;;;;1999.90;999.90;;;11.30;99.90;;;;;;6669261;88;20262;-77
2023/03/20 18:33:27;;;;;;;1999.90;999.90;;;11.30;99.90;;;;;;6667981;88;20732;-76
2023/03/20 18:43:27;;;;;;;1999.90;999.90;;;11.10;99.90;;;;;;6669675;88;20761;-78
2023/03/20 18:53:29;;;;;;;1999.90;999.90;;;11.20;99.90;;;;;;6669740;88;20246;-77
2023/03/20 19:03:34;;;;;;;1999.90;999.90;;;11.10;99.90;;;;;;6666782;88;20180;-76
2023/03/20 19:13:35;;;;;;;1999.90;999.90;;;11.20;99.90;;;;;;6670342;88;20207;-76
2023/03/20 19:23:36;;;;;;;1999.90;999.90;;;11.10;99.90;;;;;;6667630;88;21148;-77
2023/03/20 19:33:37;;;;;;;1999.90;999.90;;;11.00;99.90;;;;;;6666875;88;20358;-77
2023/03/20 19:43:38;;;;;;;1999.90;999.90;;;11.00;99.90;;;;;;6669978;88;20221;-77
2023/03/20 19:53:38;;;;;;;1999.90;999.90;;;10.90;99.90;;;;;;6669700;88;20226;-76
2023/03/20 20:03:39;;;;;;;1999.90;999.90;;;10.90;99.90;;;;;;6670385;88;20221;-77
2023/03/20 20:13:41;;;;;;;1999.90;999.90;;;11.00;99.90;;;;;;6670451;88;20215;-77
2023/03/20 20:23:42;;;;;;;1999.90;999.90;;;10.90;99.90;;;;;;6669248;88;20621;-77
2023/03/20 20:33:43;;;;;;;1999.90;999.90;;;10.80;99.90;;;;;;6663688;88;20260;-77
2023/03/20 20:43:43;;;;;;;1999.90;999.90;;;10.60;99.90;;;;;;6674946;88;20199;-76
2023/03/20 20:53:44;;;;;;;1999.90;999.90;;;10.50;99.90;;;;;;6672525;88;20220;-77
2023/03/20 21:03:44;;;;;;;1999.90;999.90;;;10.50;99.90;;;;;;6674332;88;20317;-76
2023/03/20 21:13:45;;;;;;;1999.90;999.90;;;10.50;99.90;;;;;;6677075;88;20198;-78
2023/03/20 21:23:46;;;;;;;1999.90;999.90;;;10.50;99.90;;;;;;6670279;88;20203;-77
2023/03/20 21:33:46;;;;;;;1999.90;999.90;;;10.40;99.90;;;;;;6684939;88;20193;-77
2023/03/20 21:43:47;;;;;;;1999.90;999.90;;;10.30;99.90;;;;;;6669056;89;20522;-77
2023/03/20 21:53:47;;;;;;;1999.90;999.90;;;10.40;99.90;;;;;;6669357;89;20184;-77
2023/03/20 22:03:48;;;;;;;1999.90;999.90;;;10.40;99.90;;;;;;6670232;88;20308;-78
2023/03/20 22:13:49;;;;;;;1999.90;999.90;;;10.30;99.90;;;;;;6671167;88;20200;-77
2023/03/20 22:23:49;;;;;;;1999.90;999.90;;;10.30;99.90;;;;;;6670834;88;20204;-77
2023/03/20 22:33:50;;;;;;;1999.90;999.90;;;10.30;99.90;;;;;;6667790;88;20183;-77
2023/03/20 22:43:50;;;;;;;1999.90;999.90;;;10.30;99.90;;;;;;6668515;89;20187;-77
2023/03/20 22:53:51;;;;;;;1999.90;999.90;;;10.30;99.90;;;;;;6677864;88;20213;-77
2023/03/20 23:03:51;;;;;;;1999.90;999.90;;;10.30;99.90;;;;;;6666783;88;20241;-77
2023/03/20 23:13:52;;;;;;;1999.90;999.90;;;10.30;99.90;;;;;;6666913;88;20204;-77
2023/03/20 23:23:53;;;;;;;1999.90;999.90;;;10.30;99.90;;;;;;6666851;88;20504;-76
2023/03/20 23:33:55;;;;;;;1999.90;999.90;;;10.30;99.90;;;;;;6672413;88;20195;-77
2023/03/20 23:43:56;;;;;;;1999.90;999.90;;;10.40;99.90;;;;;;6672248;88;20273;-77
2023/03/20 23:53:56;;;;;;;1999.90;999.90;;;10.40;99.90;;;;;;6664990;88;20180;-77
